Weather History for Harbor Springs, MI

Change the Weather History Date:

Saturday, October 12, 2013

  Actual Average (KPLN) Record (KPLN)
Temperature  
Mean Temperature 64 °F -  
Max Temperature 80 °F 56 °F 80 °F (2013)
Min Temperature 47 °F 38 °F 23 °F (1958)
Degree Days  
Heating Degree Days 2    
Growing Degree Days 14 (Base 50)    
Moisture  
Dew Point 50 °F    
Average Humidity 68    
Maximum Humidity 93    
Minimum Humidity 37    
Precipitation  
Precipitation 0.00 in - - ()
Sea Level Pressure  
Sea Level Pressure 30.01 in    
Wind  
Wind Speed 5 mph (SE)    
Max Wind Speed 12 mph    
Max Gust Speed 21 mph    
Visibility 10 miles    
Events Rain    
Averages and records for this station are not official NWS values.
T = Trace of Precipitation, MM = Missing Value Source: NWS Daily Summary

Daily Weather History Graph

Daily Weather History Graph

Search for Another Location

Airport:

Trip Planner

Search our weather history database for the weather conditions in past years. The results will help you decide how hot, cold, wet, or windy it might be!

Date:

Astronomy

Oct. 12, 2013 Rise Set
Actual Time 7:52 AM EDT 6:59 PM EDT
Civil Twilight 7:22 AM EDT 7:28 PM EDT
Nautical Twilight 6:48 AM EDT 8:02 PM EDT
Astronomical Twilight 6:13 AM EDT 8:37 PM EDT
Moon 3:24 PM EDT (10/12) 12:36 AM EDT (10/12)
Length of Visible Light 12h 06m
Length of Day
11h 06m
First Quarter, 58% of the Moon is Illuminated
Oct 12
First Quarter
Oct 18
Full
Oct 26
Last Quarter
Nov 3
New
Nov 10
First Quarter

Hourly Weather History & Observations

Time (EDT) Temp. Dew Point Humidity Pressure Visibility Wind Dir Wind Speed Gust Speed Precip Events Conditions
12:14 AM 52.5 °F 47.1 °F 82% 30.06 in 10.0 mi ENE 5.8 mph - N/A   Clear
12:35 AM 52.3 °F 47.1 °F 82% 30.06 in 10.0 mi ENE 4.6 mph - N/A   Clear
12:55 AM 52.3 °F 46.0 °F 79% 30.06 in 10.0 mi ENE 6.9 mph - N/A   Clear
1:14 AM 52.0 °F 44.8 °F 76% 30.06 in 10.0 mi ENE 5.8 mph - N/A   Clear
1:35 AM 50.5 °F 43.2 °F 76% 30.06 in 10.0 mi ENE 5.8 mph - N/A   Clear
1:54 AM 51.1 °F 42.4 °F 72% 30.06 in 10.0 mi ENE 5.8 mph - N/A   Clear
2:14 AM 50.0 °F 41.7 °F 73% 30.06 in 10.0 mi NE 5.8 mph - N/A   Clear
2:35 AM 50.0 °F 41.2 °F 72% 30.06 in 10.0 mi ENE 4.6 mph - N/A   Clear
2:54 AM 50.0 °F 42.3 °F 75% 30.06 in 10.0 mi ENE 3.5 mph - N/A   Clear
3:14 AM 50.0 °F 42.1 °F 74% 30.05 in 10.0 mi ENE 5.8 mph - N/A   Clear
3:35 AM 50.0 °F 43.5 °F 78% 30.05 in 10.0 mi NE 3.5 mph - N/A   Clear
3:54 AM 50.0 °F 44.1 °F 80% 30.05 in 10.0 mi Calm Calm - N/A   Clear
4:14 AM 47.3 °F 43.0 °F 85% 30.05 in 10.0 mi NE 3.5 mph - N/A   Clear
4:35 AM 47.5 °F 43.0 °F 84% 30.04 in 10.0 mi NE 3.5 mph - N/A   Clear
4:54 AM 47.7 °F 43.5 °F 86% 30.04 in 10.0 mi ENE 5.8 mph - N/A   Clear
5:15 AM 48.2 °F 43.9 °F 85% 30.04 in 10.0 mi ENE 4.6 mph - N/A   Clear
5:35 AM 49.8 °F 45.5 °F 85% 30.04 in 10.0 mi NE 4.6 mph - N/A   Clear
5:54 AM 49.6 °F 45.7 °F 86% 30.04 in 10.0 mi NNE 3.5 mph - N/A   Clear
6:15 AM 47.5 °F 44.2 °F 89% 30.04 in 10.0 mi NE 4.6 mph - N/A   Clear
6:34 AM 47.3 °F 44.2 °F 89% 30.04 in 10.0 mi ENE 5.8 mph - N/A   Clear
6:54 AM 50.0 °F 46.0 °F 86% 30.04 in 10.0 mi NE 5.8 mph - N/A   Clear
7:14 AM 49.8 °F 46.4 °F 88% 30.04 in 10.0 mi NE 4.6 mph - N/A   Clear
7:34 AM 50.0 °F 45.1 °F 83% 30.03 in 10.0 mi NE 5.8 mph - N/A   Clear
7:55 AM 50.0 °F 44.6 °F 82% 30.03 in 10.0 mi ENE 4.6 mph - N/A   Clear
8:14 AM 52.3 °F 45.9 °F 79% 30.04 in 10.0 mi NE 5.8 mph - N/A   Clear
8:34 AM 52.5 °F 46.0 °F 79% 30.04 in 10.0 mi NE 4.6 mph - N/A   Clear
8:55 AM 55.8 °F 47.1 °F 73% 30.04 in 10.0 mi NNE 3.5 mph - N/A   Clear
9:14 AM 59.4 °F 48.4 °F 67% 30.04 in 10.0 mi ENE 3.5 mph - N/A   Clear
9:35 AM 59.9 °F 47.7 °F 64% 30.04 in 10.0 mi NE 3.5 mph - N/A   Clear
9:54 AM 61.5 °F 48.4 °F 62% 30.04 in 10.0 mi Calm Calm - N/A   Clear
10:14 AM 63.3 °F 48.9 °F 59% 30.03 in 10.0 mi Calm Calm - N/A   Clear
10:35 AM 67.5 °F 51.6 °F 57% 30.03 in 10.0 mi South 3.5 mph - N/A   Clear
10:54 AM 70.0 °F 51.4 °F 52% 30.03 in 10.0 mi SSE 6.9 mph - N/A   Clear
11:14 AM 70.0 °F 50.9 °F 51% 30.03 in 10.0 mi South 8.1 mph - N/A   Clear
11:35 AM 71.1 °F 51.3 °F 49% 30.02 in 10.0 mi South 6.9 mph - N/A   Clear
11:54 AM 72.9 °F 52.2 °F 48% 30.01 in 10.0 mi SSE 4.6 mph - N/A   Clear
12:14 PM 75.2 °F 53.6 °F 47% 30.01 in 10.0 mi South 4.6 mph - N/A   Clear
12:35 PM 75.2 °F 52.9 °F 46% 30.00 in 10.0 mi SSW 6.9 mph - N/A   Clear
12:54 PM 75.9 °F 53.6 °F 46% 29.99 in 10.0 mi SSW 5.8 mph - N/A   Clear
1:14 PM 77.2 °F 53.2 °F 43% 29.99 in 10.0 mi South 9.2 mph - N/A   Clear
1:35 PM 77.5 °F 52.5 °F 42% 29.98 in 10.0 mi SSW 11.5 mph 16.1 mph N/A   Clear
1:54 PM 77.5 °F 51.4 °F 40% 29.97 in 10.0 mi SSW 9.2 mph 19.6 mph N/A   Clear
2:14 PM 78.8 °F 51.1 °F 38% 29.96 in 10.0 mi South 10.4 mph 18.4 mph N/A   Clear
2:35 PM 80.1 °F 51.8 °F 37% 29.95 in 10.0 mi South 11.5 mph 19.6 mph N/A   Clear
2:54 PM 80.1 °F 52.3 °F 38% 29.94 in 10.0 mi South 9.2 mph - N/A   Clear
3:14 PM 80.1 °F 51.8 °F 37% 29.94 in 10.0 mi South 11.5 mph 18.4 mph N/A   Clear
3:35 PM 80.1 °F 52.2 °F 38% 29.94 in 10.0 mi South 6.9 mph - N/A   Clear
3:54 PM 78.3 °F 50.5 °F 38% 29.94 in 10.0 mi South 9.2 mph - N/A   Clear
4:14 PM 80.1 °F 52.0 °F 38% 29.93 in 10.0 mi South 9.2 mph 18.4 mph N/A   Clear
4:35 PM 77.9 °F 50.7 °F 39% 29.92 in 10.0 mi South 5.8 mph - N/A   Clear
4:54 PM 77.5 °F 51.8 °F 41% 29.92 in 10.0 mi South 4.6 mph - N/A   Clear
5:15 PM 76.5 °F 50.9 °F 41% 29.93 in 10.0 mi SSW 9.2 mph - N/A   Clear
5:35 PM 75.2 °F 50.2 °F 41% 29.93 in 10.0 mi SSW 9.2 mph - N/A   Clear
5:54 PM 75.2 °F 51.4 °F 43% 29.94 in 10.0 mi South 3.5 mph - N/A   Clear
6:14 PM 75.2 °F 54.1 °F 48% 29.95 in 10.0 mi SSW 4.6 mph - N/A   Clear
6:35 PM 75.2 °F 55.6 °F 50% 29.96 in 10.0 mi SSW 5.8 mph - N/A   Scattered Clouds
6:54 PM 70.0 °F 54.7 °F 58% 29.97 in 10.0 mi West 6.9 mph - N/A   Overcast
7:14 PM 67.8 °F 59.5 °F 75% 29.97 in 10.0 mi West 9.2 mph 17.3 mph N/A   Mostly Cloudy
7:35 PM 67.5 °F 59.5 °F 76% 29.97 in 10.0 mi Calm Calm - N/A   Scattered Clouds
7:54 PM 65.7 °F 58.5 °F 78% 29.97 in 10.0 mi Calm Calm - N/A   Scattered Clouds
8:14 PM 64.9 °F 58.6 °F 80% 29.97 in 10.0 mi Calm Calm - N/A   Scattered Clouds
8:35 PM 64.0 °F 58.5 °F 82% 29.98 in 10.0 mi Calm Calm - N/A   Scattered Clouds
8:54 PM 62.6 °F 59.0 °F 88% 29.99 in 10.0 mi Calm Calm - N/A Rain Light Rain
9:14 PM 61.3 °F 59.0 °F 92% 29.99 in 5.0 mi Calm Calm - N/A Rain Rain
9:35 PM 61.7 °F 59.0 °F 91% 29.99 in 7.0 mi NW 3.5 mph - N/A Rain Light Rain
9:54 PM 61.5 °F 59.4 °F 93% 30.00 in 10.0 mi West 4.6 mph - N/A Rain Light Rain
10:15 PM 62.2 °F 59.9 °F 92% 30.00 in 10.0 mi WSW 5.8 mph - N/A Rain Rain
10:34 PM 61.7 °F 59.2 °F 91% 30.00 in 10.0 mi SSW 5.8 mph - N/A   Mostly Cloudy
10:54 PM 62.6 °F 59.4 °F 89% 30.00 in 10.0 mi SSW 9.2 mph - N/A   Overcast
11:15 PM 62.6 °F 59.5 °F 90% 30.01 in 10.0 mi SSW 10.4 mph 17.3 mph N/A   Overcast
11:34 PM 62.6 °F 59.4 °F 89% 30.01 in 10.0 mi SW 11.5 mph 18.4 mph N/A   Overcast
11:54 PM 62.6 °F 58.6 °F 87% 30.02 in 10.0 mi WSW 9.2 mph 20.7 mph N/A   Overcast